sensor_id;sensor_type;location;lat;lon;timestamp;temperature;humidity
22006;DHT22;11167;46.988;15.470;2023-06-14T00:00:16;20.40;75.40
22006;DHT22;11167;46.988;15.470;2023-06-14T00:02:18;20.40;75.40
22006;DHT22;11167;46.988;15.470;2023-06-14T00:04:18;20.40;75.50
22006;DHT22;11167;46.988;15.470;2023-06-14T00:06:21;20.40;75.40
22006;DHT22;11167;46.988;15.470;2023-06-14T00:08:22;20.30;75.30
22006;DHT22;11167;46.988;15.470;2023-06-14T00:10:25;20.30;75.40
22006;DHT22;11167;46.988;15.470;2023-06-14T00:12:27;20.30;75.40
22006;DHT22;11167;46.988;15.470;2023-06-14T00:14:28;20.30;75.40
22006;DHT22;11167;46.988;15.470;2023-06-14T00:16:31;20.30;75.50
22006;DHT22;11167;46.988;15.470;2023-06-14T00:18:33;20.20;76.20
22006;DHT22;11167;46.988;15.470;2023-06-14T00:20:34;20.20;75.30
22006;DHT22;11167;46.988;15.470;2023-06-14T00:22:35;20.20;75.40
22006;DHT22;11167;46.988;15.470;2023-06-14T00:24:38;20.20;75.40
22006;DHT22;11167;46.988;15.470;2023-06-14T00:26:39;20.20;75.40
22006;DHT22;11167;46.988;15.470;2023-06-14T00:28:39;20.20;75.40
22006;DHT22;11167;46.988;15.470;2023-06-14T00:30:42;20.10;75.30
22006;DHT22;11167;46.988;15.470;2023-06-14T00:32:45;20.10;75.30
22006;DHT22;11167;46.988;15.470;2023-06-14T00:34:47;20.10;75.40
22006;DHT22;11167;46.988;15.470;2023-06-14T00:36:48;20.10;75.40
22006;DHT22;11167;46.988;15.470;2023-06-14T00:38:49;20.10;75.40
22006;DHT22;11167;46.988;15.470;2023-06-14T00:40:50;20.00;75.40
22006;DHT22;11167;46.988;15.470;2023-06-14T00:42:51;20.00;75.40
22006;DHT22;11167;46.988;15.470;2023-06-14T00:44:52;20.00;75.30
22006;DHT22;11167;46.988;15.470;2023-06-14T00:46:53;19.90;75.20
22006;DHT22;11167;46.988;15.470;2023-06-14T00:48:56;20.00;75.30
22006;DHT22;11167;46.988;15.470;2023-06-14T00:50:58;20.00;75.40
22006;DHT22;11167;46.988;15.470;2023-06-14T00:53:02;20.00;75.40
22006;DHT22;11167;46.988;15.470;2023-06-14T00:55:04;19.90;75.40
22006;DHT22;11167;46.988;15.470;2023-06-14T00:57:05;19.90;75.40
22006;DHT22;11167;46.988;15.470;2023-06-14T00:59:07;19.90;75.40
22006;DHT22;11167;46.988;15.470;2023-06-14T01:01:08;19.90;74.70
22006;DHT22;11167;46.988;15.470;2023-06-14T01:03:09;19.90;75.40
22006;DHT22;11167;46.988;15.470;2023-06-14T01:05:13;19.80;75.30
22006;DHT22;11167;46.988;15.470;2023-06-14T01:07:27;19.80;75.30
22006;DHT22;11167;46.988;15.470;2023-06-14T01:09:32;19.80;75.40
22006;DHT22;11167;46.988;15.470;2023-06-14T01:11:41;19.80;75.50
22006;DHT22;11167;46.988;15.470;2023-06-14T01:13:43;19.80;75.40
22006;DHT22;11167;46.988;15.470;2023-06-14T01:15:46;19.70;75.40
22006;DHT22;11167;46.988;15.470;2023-06-14T01:17:49;19.70;75.30
22006;DHT22;11167;46.988;15.470;2023-06-14T01:19:52;19.70;75.40
22006;DHT22;11167;46.988;15.470;2023-06-14T01:22:00;19.70;75.40
22006;DHT22;11167;46.988;15.470;2023-06-14T01:24:01;19.70;75.40
22006;DHT22;11167;46.988;15.470;2023-06-14T01:26:04;19.70;75.40
22006;DHT22;11167;46.988;15.470;2023-06-14T01:28:06;19.70;75.40
22006;DHT22;11167;46.988;15.470;2023-06-14T01:30:10;19.70;75.50
22006;DHT22;11167;46.988;15.470;2023-06-14T01:32:12;19.60;76.40
22006;DHT22;11167;46.988;15.470;2023-06-14T01:34:14;19.60;75.50
22006;DHT22;11167;46.988;15.470;2023-06-14T01:36:16;19.60;75.50
22006;DHT22;11167;46.988;15.470;2023-06-14T01:38:22;19.60;76.30
22006;DHT22;11167;46.988;15.470;2023-06-14T01:40:25;19.60;75.50
22006;DHT22;11167;46.988;15.470;2023-06-14T01:42:27;19.50;75.40
22006;DHT22;11167;46.988;15.470;2023-06-14T01:44:29;19.50;75.40
22006;DHT22;11167;46.988;15.470;2023-06-14T01:46:31;19.50;75.00
22006;DHT22;11167;46.988;15.470;2023-06-14T01:48:32;19.50;75.50
22006;DHT22;11167;46.988;15.470;2023-06-14T01:50:34;19.50;75.50
22006;DHT22;11167;46.988;15.470;2023-06-14T01:52:36;19.50;75.50
22006;DHT22;11167;46.988;15.470;2023-06-14T01:54:37;19.50;76.20
22006;DHT22;11167;46.988;15.470;2023-06-14T01:56:39;19.50;75.50
22006;DHT22;11167;46.988;15.470;2023-06-14T01:58:41;19.40;75.50
22006;DHT22;11167;46.988;15.470;2023-06-14T02:00:42;19.40;76.30
22006;DHT22;11167;46.988;15.470;2023-06-14T02:02:44;19.40;75.50
22006;DHT22;11167;46.988;15.470;2023-06-14T02:04:46;19.40;75.50
22006;DHT22;11167;46.988;15.470;2023-06-14T02:06:48;19.40;75.50
22006;DHT22;11167;46.988;15.470;2023-06-14T02:08:49;19.40;75.50
22006;DHT22;11167;46.988;15.470;2023-06-14T02:10:51;19.40;75.50
22006;DHT22;11167;46.988;15.470;2023-06-14T02:12:52;19.40;75.50
22006;DHT22;11167;46.988;15.470;2023-06-14T02:14:53;19.30;75.60
22006;DHT22;11167;46.988;15.470;2023-06-14T02:16:55;19.30;75.60
22006;DHT22;11167;46.988;15.470;2023-06-14T02:18:56;19.30;75.50
22006;DHT22;11167;46.988;15.470;2023-06-14T02:20:57;19.30;75.50
22006;DHT22;11167;46.988;15.470;2023-06-14T02:22:58;19.30;75.60
22006;DHT22;11167;46.988;15.470;2023-06-14T02:24:59;19.30;75.60
22006;DHT22;11167;46.988;15.470;2023-06-14T02:27:02;19.30;75.60
22006;DHT22;11167;46.988;15.470;2023-06-14T02:29:03;19.20;75.50
22006;DHT22;11167;46.988;15.470;2023-06-14T02:31:06;19.20;75.50
22006;DHT22;11167;46.988;15.470;2023-06-14T02:33:07;19.20;75.50
22006;DHT22;11167;46.988;15.470;2023-06-14T02:35:08;19.20;75.50
22006;DHT22;11167;46.988;15.470;2023-06-14T02:37:09;19.20;76.50
22006;DHT22;11167;46.988;15.470;2023-06-14T02:39:11;19.20;75.60
22006;DHT22;11167;46.988;15.470;2023-06-14T02:41:13;19.20;75.60
22006;DHT22;11167;46.988;15.470;2023-06-14T02:43:14;19.20;76.60
22006;DHT22;11167;46.988;15.470;2023-06-14T02:45:16;19.20;75.70
22006;DHT22;11167;46.988;15.470;2023-06-14T02:47:18;19.10;75.60
22006;DHT22;11167;46.988;15.470;2023-06-14T02:49:19;19.10;75.70
22006;DHT22;11167;46.988;15.470;2023-06-14T02:51:20;19.10;75.60
22006;DHT22;11167;46.988;15.470;2023-06-14T02:53:21;19.10;75.70
22006;DHT22;11167;46.988;15.470;2023-06-14T02:55:22;19.10;75.70
22006;DHT22;11167;46.988;15.470;2023-06-14T02:57:23;19.10;75.70
22006;DHT22;11167;46.988;15.470;2023-06-14T02:59:31;19.10;75.70
22006;DHT22;11167;46.988;15.470;2023-06-14T03:01:32;19.10;75.70
22006;DHT22;11167;46.988;15.470;2023-06-14T03:03:38;19.00;75.70
22006;DHT22;11167;46.988;15.470;2023-06-14T03:05:44;19.00;75.70
22006;DHT22;11167;46.988;15.470;2023-06-14T03:07:48;19.00;75.70
22006;DHT22;11167;46.988;15.470;2023-06-14T03:09:51;19.00;75.70
22006;DHT22;11167;46.988;15.470;2023-06-14T03:11:52;19.00;75.80
22006;DHT22;11167;46.988;15.470;2023-06-14T03:13:53;19.00;75.90
22006;DHT22;11167;46.988;15.470;2023-06-14T03:15:56;19.00;75.80
22006;DHT22;11167;46.988;15.470;2023-06-14T03:17:57;19.00;75.90
22006;DHT22;11167;46.988;15.470;2023-06-14T03:20:00;19.00;75.90
22006;DHT22;11167;46.988;15.470;2023-06-14T03:22:01;19.00;75.90
22006;DHT22;11167;46.988;15.470;2023-06-14T03:24:03;18.90;75.80
22006;DHT22;11167;46.988;15.470;2023-06-14T03:26:04;18.90;75.80
22006;DHT22;11167;46.988;15.470;2023-06-14T03:28:06;18.90;75.80
22006;DHT22;11167;46.988;15.470;2023-06-14T03:30:08;18.90;75.90
22006;DHT22;11167;46.988;15.470;2023-06-14T03:32:10;18.90;75.90
22006;DHT22;11167;46.988;15.470;2023-06-14T03:34:11;18.90;75.90
22006;DHT22;11167;46.988;15.470;2023-06-14T03:36:12;18.90;75.90
22006;DHT22;11167;46.988;15.470;2023-06-14T03:38:13;18.90;76.00
22006;DHT22;11167;46.988;15.470;2023-06-14T03:40:16;18.80;75.40
22006;DHT22;11167;46.988;15.470;2023-06-14T03:42:17;18.80;76.00
22006;DHT22;11167;46.988;15.470;2023-06-14T03:44:18;18.80;76.00
22006;DHT22;11167;46.988;15.470;2023-06-14T03:46:19;18.80;76.00
22006;DHT22;11167;46.988;15.470;2023-06-14T03:48:20;18.80;76.00
22006;DHT22;11167;46.988;15.470;2023-06-14T03:50:22;18.80;76.00
22006;DHT22;11167;46.988;15.470;2023-06-14T03:52:23;18.80;76.00
22006;DHT22;11167;46.988;15.470;2023-06-14T03:54:24;18.80;76.00
22006;DHT22;11167;46.988;15.470;2023-06-14T03:56:25;18.80;76.00
22006;DHT22;11167;46.988;15.470;2023-06-14T03:58:27;18.80;76.00
22006;DHT22;11167;46.988;15.470;2023-06-14T04:00:28;18.80;76.10
22006;DHT22;11167;46.988;15.470;2023-06-14T04:02:30;18.70;76.00
22006;DHT22;11167;46.988;15.470;2023-06-14T04:04:31;18.70;76.00
22006;DHT22;11167;46.988;15.470;2023-06-14T04:06:32;18.70;76.20
22006;DHT22;11167;46.988;15.470;2023-06-14T04:08:33;18.70;76.10
22006;DHT22;11167;46.988;15.470;2023-06-14T04:10:35;18.70;76.20
22006;DHT22;11167;46.988;15.470;2023-06-14T04:12:37;18.70;76.10
22006;DHT22;11167;46.988;15.470;2023-06-14T04:14:39;18.70;76.10
22006;DHT22;11167;46.988;15.470;2023-06-14T04:16:40;18.70;76.90
22006;DHT22;11167;46.988;15.470;2023-06-14T04:18:41;18.70;76.20
22006;DHT22;11167;46.988;15.470;2023-06-14T04:20:42;18.60;76.10
22006;DHT22;11167;46.988;15.470;2023-06-14T04:22:44;18.60;76.20
22006;DHT22;11167;46.988;15.470;2023-06-14T04:24:45;18.60;76.20
22006;DHT22;11167;46.988;15.470;2023-06-14T04:26:47;18.60;76.20
22006;DHT22;11167;46.988;15.470;2023-06-14T04:28:52;18.60;76.20
22006;DHT22;11167;46.988;15.470;2023-06-14T04:30:53;18.60;76.20
22006;DHT22;11167;46.988;15.470;2023-06-14T04:32:54;18.60;76.30
22006;DHT22;11167;46.988;15.470;2023-06-14T04:34:56;18.60;76.30
22006;DHT22;11167;46.988;15.470;2023-06-14T04:36:58;18.50;76.20
22006;DHT22;11167;46.988;15.470;2023-06-14T04:39:01;18.60;76.40
22006;DHT22;11167;46.988;15.470;2023-06-14T04:41:04;18.60;76.40
22006;DHT22;11167;46.988;15.470;2023-06-14T04:43:05;18.60;76.40
22006;DHT22;11167;46.988;15.470;2023-06-14T04:45:08;18.60;76.40
22006;DHT22;11167;46.988;15.470;2023-06-14T04:47:10;18.50;76.40
22006;DHT22;11167;46.988;15.470;2023-06-14T04:49:16;18.50;76.40
22006;DHT22;11167;46.988;15.470;2023-06-14T04:51:18;18.50;76.40
22006;DHT22;11167;46.988;15.470;2023-06-14T04:53:21;18.50;76.40
22006;DHT22;11167;46.988;15.470;2023-06-14T04:55:23;18.50;76.40
22006;DHT22;11167;46.988;15.470;2023-06-14T04:57:25;18.50;76.40
22006;DHT22;11167;46.988;15.470;2023-06-14T04:59:26;18.50;76.40
22006;DHT22;11167;46.988;15.470;2023-06-14T05:01:27;18.50;76.40
22006;DHT22;11167;46.988;15.470;2023-06-14T05:03:28;18.50;76.00
22006;DHT22;11167;46.988;15.470;2023-06-14T05:05:31;18.50;76.50
22006;DHT22;11167;46.988;15.470;2023-06-14T05:07:32;18.50;76.50
22006;DHT22;11167;46.988;15.470;2023-06-14T05:09:35;18.50;76.50
22006;DHT22;11167;46.988;15.470;2023-06-14T05:11:36;18.50;76.60
22006;DHT22;11167;46.988;15.470;2023-06-14T05:13:37;18.50;76.60
22006;DHT22;11167;46.988;15.470;2023-06-14T05:15:38;18.40;76.40
22006;DHT22;11167;46.988;15.470;2023-06-14T05:17:39;18.40;76.50
22006;DHT22;11167;46.988;15.470;2023-06-14T05:19:41;18.40;76.50
22006;DHT22;11167;46.988;15.470;2023-06-14T05:21:42;18.40;76.50
22006;DHT22;11167;46.988;15.470;2023-06-14T05:23:43;18.40;76.50
22006;DHT22;11167;46.988;15.470;2023-06-14T05:25:45;18.40;76.60
22006;DHT22;11167;46.988;15.470;2023-06-14T05:27:47;18.40;76.60
22006;DHT22;11167;46.988;15.470;2023-06-14T05:29:49;18.40;76.60
22006;DHT22;11167;46.988;15.470;2023-06-14T05:31:50;18.40;76.60
22006;DHT22;11167;46.988;15.470;2023-06-14T05:33:52;18.40;76.60
22006;DHT22;11167;46.988;15.470;2023-06-14T05:35:54;18.40;76.60
22006;DHT22;11167;46.988;15.470;2023-06-14T05:37:56;18.40;76.60
22006;DHT22;11167;46.988;15.470;2023-06-14T05:39:57;18.40;76.70
22006;DHT22;11167;46.988;15.470;2023-06-14T05:41:58;18.40;76.90
22006;DHT22;11167;46.988;15.470;2023-06-14T05:44:01;18.40;76.70
22006;DHT22;11167;46.988;15.470;2023-06-14T05:46:02;18.40;76.70
22006;DHT22;11167;46.988;15.470;2023-06-14T05:48:03;18.30;76.70
22006;DHT22;11167;46.988;15.470;2023-06-14T05:50:05;18.30;76.70
22006;DHT22;11167;46.988;15.470;2023-06-14T05:52:07;18.30;76.70
22006;DHT22;11167;46.988;15.470;2023-06-14T05:54:09;18.30;76.70
22006;DHT22;11167;46.988;15.470;2023-06-14T05:56:10;18.30;76.70
22006;DHT22;11167;46.988;15.470;2023-06-14T05:58:11;18.30;76.80
22006;DHT22;11167;46.988;15.470;2023-06-14T06:00:16;18.30;77.70
22006;DHT22;11167;46.988;15.470;2023-06-14T06:02:17;18.30;76.80
22006;DHT22;11167;46.988;15.470;2023-06-14T06:04:18;18.30;76.80
22006;DHT22;11167;46.988;15.470;2023-06-14T06:06:19;18.30;76.80
22006;DHT22;11167;46.988;15.470;2023-06-14T06:08:20;18.30;76.80
22006;DHT22;11167;46.988;15.470;2023-06-14T06:10:21;18.30;76.90
22006;DHT22;11167;46.988;15.470;2023-06-14T06:12:22;18.30;76.90
22006;DHT22;11167;46.988;15.470;2023-06-14T06:14:23;18.30;76.90
22006;DHT22;11167;46.988;15.470;2023-06-14T06:16:24;18.30;76.90
22006;DHT22;11167;46.988;15.470;2023-06-14T06:18:25;18.30;77.70
22006;DHT22;11167;46.988;15.470;2023-06-14T06:20:26;18.30;76.90
22006;DHT22;11167;46.988;15.470;2023-06-14T06:22:29;18.20;76.80
22006;DHT22;11167;46.988;15.470;2023-06-14T06:24:30;18.30;76.90
22006;DHT22;11167;46.988;15.470;2023-06-14T06:26:31;18.30;77.00
22006;DHT22;11167;46.988;15.470;2023-06-14T06:28:33;18.30;76.90
22006;DHT22;11167;46.988;15.470;2023-06-14T06:30:34;18.30;76.60
22006;DHT22;11167;46.988;15.470;2023-06-14T06:32:36;18.30;77.00
22006;DHT22;11167;46.988;15.470;2023-06-14T06:34:38;18.30;76.90
22006;DHT22;11167;46.988;15.470;2023-06-14T06:36:39;18.30;77.00
22006;DHT22;11167;46.988;15.470;2023-06-14T06:38:40;18.30;77.00
22006;DHT22;11167;46.988;15.470;2023-06-14T06:40:41;18.20;76.90
22006;DHT22;11167;46.988;15.470;2023-06-14T06:42:42;18.30;77.00
22006;DHT22;11167;46.988;15.470;2023-06-14T06:44:43;18.20;76.90
22006;DHT22;11167;46.988;15.470;2023-06-14T06:46:44;18.20;77.00
22006;DHT22;11167;46.988;15.470;2023-06-14T06:48:45;18.20;77.00
22006;DHT22;11167;46.988;15.470;2023-06-14T06:50:47;18.20;77.00
22006;DHT22;11167;46.988;15.470;2023-06-14T06:52:48;18.20;77.10
22006;DHT22;11167;46.988;15.470;2023-06-14T06:54:49;18.20;77.00
22006;DHT22;11167;46.988;15.470;2023-06-14T06:56:51;18.20;77.10
22006;DHT22;11167;46.988;15.470;2023-06-14T06:58:52;18.20;77.00
22006;DHT22;11167;46.988;15.470;2023-06-14T07:00:53;18.20;77.00
22006;DHT22;11167;46.988;15.470;2023-06-14T07:02:54;18.20;77.10
22006;DHT22;11167;46.988;15.470;2023-06-14T07:04:55;18.20;77.10
22006;DHT22;11167;46.988;15.470;2023-06-14T07:06:56;18.20;77.20
22006;DHT22;11167;46.988;15.470;2023-06-14T07:08:57;18.20;77.10
22006;DHT22;11167;46.988;15.470;2023-06-14T07:11:00;18.20;77.10
22006;DHT22;11167;46.988;15.470;2023-06-14T07:13:01;18.20;77.10
22006;DHT22;11167;46.988;15.470;2023-06-14T07:15:03;18.20;77.10
22006;DHT22;11167;46.988;15.470;2023-06-14T07:17:04;18.20;77.10
22006;DHT22;11167;46.988;15.470;2023-06-14T07:19:05;18.20;77.20
22006;DHT22;11167;46.988;15.470;2023-06-14T07:21:06;18.20;77.20
22006;DHT22;11167;46.988;15.470;2023-06-14T07:23:08;18.20;77.30
22006;DHT22;11167;46.988;15.470;2023-06-14T07:25:10;18.20;77.20
22006;DHT22;11167;46.988;15.470;2023-06-14T07:27:13;18.20;77.30
22006;DHT22;11167;46.988;15.470;2023-06-14T07:29:14;18.20;77.30
22006;DHT22;11167;46.988;15.470;2023-06-14T07:31:17;18.20;77.30
22006;DHT22;11167;46.988;15.470;2023-06-14T07:33:20;18.20;77.30
22006;DHT22;11167;46.988;15.470;2023-06-14T07:35:21;18.20;77.30
22006;DHT22;11167;46.988;15.470;2023-06-14T07:37:22;18.20;77.30
22006;DHT22;11167;46.988;15.470;2023-06-14T07:39:23;18.20;77.40
22006;DHT22;11167;46.988;15.470;2023-06-14T07:41:24;18.20;77.40
22006;DHT22;11167;46.988;15.470;2023-06-14T07:43:26;18.20;77.30
22006;DHT22;11167;46.988;15.470;2023-06-14T07:45:27;18.20;77.40
22006;DHT22;11167;46.988;15.470;2023-06-14T07:47:28;18.20;77.40
22006;DHT22;11167;46.988;15.470;2023-06-14T07:49:29;18.20;77.50
22006;DHT22;11167;46.988;15.470;2023-06-14T07:51:30;18.20;77.50
22006;DHT22;11167;46.988;15.470;2023-06-14T07:53:31;18.20;77.50
22006;DHT22;11167;46.988;15.470;2023-06-14T07:55:32;18.20;77.50
22006;DHT22;11167;46.988;15.470;2023-06-14T07:57:36;18.10;77.40
22006;DHT22;11167;46.988;15.470;2023-06-14T07:59:37;18.10;77.50
22006;DHT22;11167;46.988;15.470;2023-06-14T08:01:38;18.10;77.40
22006;DHT22;11167;46.988;15.470;2023-06-14T08:03:40;18.10;77.50
22006;DHT22;11167;46.988;15.470;2023-06-14T08:05:41;18.10;77.60
22006;DHT22;11167;46.988;15.470;2023-06-14T08:07:43;18.10;77.60
22006;DHT22;11167;46.988;15.470;2023-06-14T08:09:44;18.10;77.60
22006;DHT22;11167;46.988;15.470;2023-06-14T08:11:45;18.10;77.60
22006;DHT22;11167;46.988;15.470;2023-06-14T08:13:46;18.10;77.60
22006;DHT22;11167;46.988;15.470;2023-06-14T08:15:47;18.10;77.60
22006;DHT22;11167;46.988;15.470;2023-06-14T08:17:48;18.10;77.60
22006;DHT22;11167;46.988;15.470;2023-06-14T08:19:49;18.10;77.60
22006;DHT22;11167;46.988;15.470;2023-06-14T08:21:51;18.10;78.00
22006;DHT22;11167;46.988;15.470;2023-06-14T08:23:52;18.10;77.60
22006;DHT22;11167;46.988;15.470;2023-06-14T08:25:53;18.10;77.60
22006;DHT22;11167;46.988;15.470;2023-06-14T08:27:54;18.10;77.60
22006;DHT22;11167;46.988;15.470;2023-06-14T08:29:55;18.10;77.60
22006;DHT22;11167;46.988;15.470;2023-06-14T08:31:57;18.10;77.80
22006;DHT22;11167;46.988;15.470;2023-06-14T08:33:58;18.10;77.60
22006;DHT22;11167;46.988;15.470;2023-06-14T08:35:59;18.10;77.60
22006;DHT22;11167;46.988;15.470;2023-06-14T08:38:00;18.10;77.60
22006;DHT22;11167;46.988;15.470;2023-06-14T08:40:02;18.10;77.70
22006;DHT22;11167;46.988;15.470;2023-06-14T08:42:06;18.10;77.70
22006;DHT22;11167;46.988;15.470;2023-06-14T08:44:08;18.10;77.70
22006;DHT22;11167;46.988;15.470;2023-06-14T08:46:10;18.10;77.70
22006;DHT22;11167;46.988;15.470;2023-06-14T08:48:12;18.00;77.60
22006;DHT22;11167;46.988;15.470;2023-06-14T08:50:15;18.00;77.60
22006;DHT22;11167;46.988;15.470;2023-06-14T08:52:19;18.00;77.70
22006;DHT22;11167;46.988;15.470;2023-06-14T08:54:22;18.00;77.70
22006;DHT22;11167;46.988;15.470;2023-06-14T08:56:26;18.00;77.70
22006;DHT22;11167;46.988;15.470;2023-06-14T08:58:28;18.00;77.80
22006;DHT22;11167;46.988;15.470;2023-06-14T09:00:34;18.00;77.80
22006;DHT22;11167;46.988;15.470;2023-06-14T09:02:38;18.00;77.70
22006;DHT22;11167;46.988;15.470;2023-06-14T09:04:41;18.00;77.80
22006;DHT22;11167;46.988;15.470;2023-06-14T09:06:43;18.00;78.50
22006;DHT22;11167;46.988;15.470;2023-06-14T09:08:46;18.00;77.80
22006;DHT22;11167;46.988;15.470;2023-06-14T09:10:48;18.00;77.80
22006;DHT22;11167;46.988;15.470;2023-06-14T09:12:49;18.00;77.80
22006;DHT22;11167;46.988;15.470;2023-06-14T09:14:50;18.00;77.80
22006;DHT22;11167;46.988;15.470;2023-06-14T09:16:54;18.00;77.80
22006;DHT22;11167;46.988;15.470;2023-06-14T09:18:55;18.00;77.80
22006;DHT22;11167;46.988;15.470;2023-06-14T09:20:56;18.00;77.80
22006;DHT22;11167;46.988;15.470;2023-06-14T09:23:00;18.00;77.80
22006;DHT22;11167;46.988;15.470;2023-06-14T09:25:02;18.00;77.80
22006;DHT22;11167;46.988;15.470;2023-06-14T09:27:03;18.00;77.80
22006;DHT22;11167;46.988;15.470;2023-06-14T09:29:05;17.90;77.80
22006;DHT22;11167;46.988;15.470;2023-06-14T09:31:07;18.00;77.80
22006;DHT22;11167;46.988;15.470;2023-06-14T09:33:10;18.00;77.80
22006;DHT22;11167;46.988;15.470;2023-06-14T09:35:11;17.90;77.80
22006;DHT22;11167;46.988;15.470;2023-06-14T09:37:12;17.90;77.80
22006;DHT22;11167;46.988;15.470;2023-06-14T09:39:16;18.00;77.80
22006;DHT22;11167;46.988;15.470;2023-06-14T09:41:18;18.00;77.80
22006;DHT22;11167;46.988;15.470;2023-06-14T09:43:19;17.90;77.80
22006;DHT22;11167;46.988;15.470;2023-06-14T09:45:22;17.90;77.80
22006;DHT22;11167;46.988;15.470;2023-06-14T09:47:24;17.90;77.80
22006;DHT22;11167;46.988;15.470;2023-06-14T09:49:26;17.90;77.80
22006;DHT22;11167;46.988;15.470;2023-06-14T09:51:28;17.90;77.80
22006;DHT22;11167;46.988;15.470;2023-06-14T09:53:33;17.90;77.80
22006;DHT22;11167;46.988;15.470;2023-06-14T09:55:37;17.90;77.80
22006;DHT22;11167;46.988;15.470;2023-06-14T09:57:41;17.90;77.80
22006;DHT22;11167;46.988;15.470;2023-06-14T09:59:46;17.90;77.60
22006;DHT22;11167;46.988;15.470;2023-06-14T10:01:50;17.90;77.90
22006;DHT22;11167;46.988;15.470;2023-06-14T10:03:53;17.90;77.90
22006;DHT22;11167;46.988;15.470;2023-06-14T10:05:56;17.90;77.90
22006;DHT22;11167;46.988;15.470;2023-06-14T10:08:07;17.90;77.90
22006;DHT22;11167;46.988;15.470;2023-06-14T10:10:06;17.90;77.60
22006;DHT22;11167;46.988;15.470;2023-06-14T10:12:07;17.90;78.70
22006;DHT22;11167;46.988;15.470;2023-06-14T10:14:10;17.90;77.90
22006;DHT22;11167;46.988;15.470;2023-06-14T10:16:27;17.90;77.90
22006;DHT22;11167;46.988;15.470;2023-06-14T10:18:47;17.90;77.90
22006;DHT22;11167;46.988;15.470;2023-06-14T10:23:13;17.90;77.90
22006;DHT22;11167;46.988;15.470;2023-06-14T10:25:13;17.90;78.00
22006;DHT22;11167;46.988;15.470;2023-06-14T10:27:17;17.90;78.00
22006;DHT22;11167;46.988;15.470;2023-06-14T10:29:20;17.90;78.00
22006;DHT22;11167;46.988;15.470;2023-06-14T10:31:22;17.90;78.00
22006;DHT22;11167;46.988;15.470;2023-06-14T10:33:23;17.90;78.00
22006;DHT22;11167;46.988;15.470;2023-06-14T10:35:25;17.90;77.90
22006;DHT22;11167;46.988;15.470;2023-06-14T10:37:26;17.80;78.00
22006;DHT22;11167;46.988;15.470;2023-06-14T10:39:27;17.90;78.00
22006;DHT22;11167;46.988;15.470;2023-06-14T10:41:29;17.90;77.90
22006;DHT22;11167;46.988;15.470;2023-06-14T10:43:30;17.90;78.00
22006;DHT22;11167;46.988;15.470;2023-06-14T10:45:31;17.90;78.00
22006;DHT22;11167;46.988;15.470;2023-06-14T10:47:33;17.90;78.00
22006;DHT22;11167;46.988;15.470;2023-06-14T10:49:44;17.90;78.00
22006;DHT22;11167;46.988;15.470;2023-06-14T10:52:07;17.90;78.00
22006;DHT22;11167;46.988;15.470;2023-06-14T10:54:12;17.90;78.00
22006;DHT22;11167;46.988;15.470;2023-06-14T10:56:30;17.90;78.30
22006;DHT22;11167;46.988;15.470;2023-06-14T10:58:32;17.90;78.00
22006;DHT22;11167;46.988;15.470;2023-06-14T11:00:33;17.90;78.00
22006;DHT22;11167;46.988;15.470;2023-06-14T11:05:16;17.90;78.10
22006;DHT22;11167;46.988;15.470;2023-06-14T11:11:46;17.90;78.20
22006;DHT22;11167;46.988;15.470;2023-06-14T11:13:47;17.90;78.20
22006;DHT22;11167;46.988;15.470;2023-06-14T11:15:48;17.90;78.20
22006;DHT22;11167;46.988;15.470;2023-06-14T11:17:51;17.90;78.30
22006;DHT22;11167;46.988;15.470;2023-06-14T11:20:13;18.00;78.30
22006;DHT22;11167;46.988;15.470;2023-06-14T11:22:16;18.00;78.30
22006;DHT22;11167;46.988;15.470;2023-06-14T11:24:19;18.00;78.30
22006;DHT22;11167;46.988;15.470;2023-06-14T11:26:27;18.00;78.30
22006;DHT22;11167;46.988;15.470;2023-06-14T11:28:39;18.00;78.20
22006;DHT22;11167;46.988;15.470;2023-06-14T11:30:40;18.00;78.20
22006;DHT22;11167;46.988;15.470;2023-06-14T11:32:42;18.00;78.30
22006;DHT22;11167;46.988;15.470;2023-06-14T11:34:45;18.00;78.30
22006;DHT22;11167;46.988;15.470;2023-06-14T11:36:47;18.00;78.30
22006;DHT22;11167;46.988;15.470;2023-06-14T11:38:48;18.00;78.30
22006;DHT22;11167;46.988;15.470;2023-06-14T11:40:49;18.00;78.30
22006;DHT22;11167;46.988;15.470;2023-06-14T11:43:02;18.10;78.40
22006;DHT22;11167;46.988;15.470;2023-06-14T11:45:02;18.10;78.40
22006;DHT22;11167;46.988;15.470;2023-06-14T11:47:04;18.10;78.40
22006;DHT22;11167;46.988;15.470;2023-06-14T11:49:07;18.10;78.40
22006;DHT22;11167;46.988;15.470;2023-06-14T11:51:08;18.10;78.40
22006;DHT22;11167;46.988;15.470;2023-06-14T11:53:10;18.10;78.40
22006;DHT22;11167;46.988;15.470;2023-06-14T11:55:11;18.10;77.80
22006;DHT22;11167;46.988;15.470;2023-06-14T11:57:13;18.10;78.30
22006;DHT22;11167;46.988;15.470;2023-06-14T11:59:14;18.20;78.40
22006;DHT22;11167;46.988;15.470;2023-06-14T12:01:16;18.10;78.40
22006;DHT22;11167;46.988;15.470;2023-06-14T12:03:28;18.20;78.40
22006;DHT22;11167;46.988;15.470;2023-06-14T12:05:26;18.20;78.40
22006;DHT22;11167;46.988;15.470;2023-06-14T12:07:29;18.20;78.40
22006;DHT22;11167;46.988;15.470;2023-06-14T12:09:32;18.20;79.20
22006;DHT22;11167;46.988;15.470;2023-06-14T12:11:35;18.30;78.60
22006;DHT22;11167;46.988;15.470;2023-06-14T12:13:38;18.30;78.50
22006;DHT22;11167;46.988;15.470;2023-06-14T12:15:41;18.30;78.50
22006;DHT22;11167;46.988;15.470;2023-06-14T12:17:42;18.30;78.60
22006;DHT22;11167;46.988;15.470;2023-06-14T12:19:45;18.30;78.50
22006;DHT22;11167;46.988;15.470;2023-06-14T12:21:47;18.30;78.50
22006;DHT22;11167;46.988;15.470;2023-06-14T12:23:53;18.30;78.50
22006;DHT22;11167;46.988;15.470;2023-06-14T12:25:54;18.30;78.50
22006;DHT22;11167;46.988;15.470;2023-06-14T12:27:55;18.40;78.60
22006;DHT22;11167;46.988;15.470;2023-06-14T12:30:02;18.40;79.40
22006;DHT22;11167;46.988;15.470;2023-06-14T12:32:03;18.40;78.60
22006;DHT22;11167;46.988;15.470;2023-06-14T12:34:05;18.40;78.60
22006;DHT22;11167;46.988;15.470;2023-06-14T12:36:08;18.40;78.60
22006;DHT22;11167;46.988;15.470;2023-06-14T12:38:09;18.40;79.00
22006;DHT22;11167;46.988;15.470;2023-06-14T12:40:11;18.50;78.60
22006;DHT22;11167;46.988;15.470;2023-06-14T12:42:12;18.40;78.60
22006;DHT22;11167;46.988;15.470;2023-06-14T12:44:15;18.50;78.60
22006;DHT22;11167;46.988;15.470;2023-06-14T12:46:16;18.50;78.60
22006;DHT22;11167;46.988;15.470;2023-06-14T12:48:17;18.50;78.80